Repton, United Kingdom
Current Conditions -  °F | °C
As of 2:50 AM on Thursday 27 Nov 2014 (Local Time) from EGNX Reporting Station
Light Rain Light Rain  
Wind Chill: 45°   Ceiling: Unl
Heat Index: 45°   Visibility: 0.18mi
Dew Point: 45°   Wind: 3mph
Humidity: 100%   Direction: 30°NNE
Pressure: 29.68"   Gusts: NA
Location:  52.84°N, 1.55°W
Report Text: EGNX 270250Z 03003KT 0300 R27/0700 -RA FG VV/// 07/07 Q1005 RERA
Loading
Personal Weather Stations






























Interactive Weather Map New forecast layout! Learn more

10-Day Weather Forecast

Advertisements
Track Severe Weather on mobile